Terminal Aerodrome Forecast
Issued by NWS

Home | Current Version | Previous Version | Graphics & Text | Print | Product List | Glossary On
Versions: 1 2 3 4 5 6 7 8 9 10 11 12 13 14 15 16 17 18 19 20 21 22 23 24 25 26 27
000
FTUS45 KGGW 230500
TAFOLF
TAF
KOLF 230523Z 2306/2406 07005KT P6SM SCT120 BKN300
     FM231500 10011G17KT P6SM SCT120 BKN250
     FM232000 11014G23KT P6SM BKN300
     FM240200 09018G25KT P6SM VCTS SCT070CB BKN120=

USA.gov is the U.S. government's official web portal to all federal, state and local government web resources and services.